Time;durP1;ratioP1;P1;durP2;ratioP2;P2;SDS_P1;SDS_P2;PMS_P1;PMS_P2;Temp;Humidity;BMP_temperature;BMP_pressure;BME280_temperature;BME280_humidity;BME280_pressure;Samples;Min_cycle;Max_cycle;Signal;HPM_P1;HPM_P2
2021/12/07 00:03:08;;;;;;;30.67;17.75;;;;;;;1.34;65.38;97360.69;9811165;30;20055;-78
2021/12/07 00:08:31;;;;;;;29.10;16.90;;;;;;;1.33;65.01;97350.97;9799374;30;20058;-78
2021/12/07 00:13:53;;;;;;;28.08;16.75;;;;;;;1.35;65.30;97345.69;9798332;30;20056;-78
2021/12/07 00:19:17;;;;;;;26.02;15.82;;;;;;;1.36;65.25;97330.66;9799638;30;20127;-78
2021/12/07 00:24:45;;;;;;;25.88;15.15;;;;;;;1.38;65.03;97328.09;9811433;30;20051;-78
2021/12/07 00:30:08;;;;;;;27.85;15.98;;;;;;;1.42;64.68;97330.47;9797988;30;20052;-78
2021/12/07 00:35:35;;;;;;;26.08;15.57;;;;;;;1.37;65.44;97337.63;9812077;30;20139;-78
2021/12/07 00:41:01;;;;;;;28.90;16.73;;;;;;;1.39;65.25;97335.06;9810345;30;20052;-78
2021/12/07 00:46:26;;;;;;;23.98;14.45;;;;;;;1.45;65.13;97332.16;9798129;30;20060;-78
2021/12/07 00:51:50;;;;;;;24.60;15.48;;;;;;;1.45;65.12;97326.66;9811322;30;20090;-78
2021/12/07 00:57:13;;;;;;;26.17;15.20;;;;;;;1.43;65.20;97318.94;9809779;30;20462;-78
2021/12/07 01:02:40;;;;;;;27.13;16.13;;;;;;;1.36;65.03;97316.16;9822235;30;20051;-79
2021/12/07 01:24:46;;;;;;;31.95;18.05;;;;;;;1.22;65.88;97309.31;9813239;30;20608;-78
2021/12/07 01:30:18;;;;;;;30.85;18.13;;;;;;;1.14;66.02;97298.25;9804039;30;20048;-78
2021/12/07 02:03:15;;;;;;;34.37;20.57;;;;;;;0.94;66.54;97263.34;9803665;30;20140;-78
2021/12/07 02:08:36;;;;;;;33.65;19.60;;;;;;;0.87;66.79;97259.28;9803378;30;20056;-78
2021/12/07 02:19:20;;;;;;;34.13;20.35;;;;;;;0.80;67.04;97249.72;9814924;30;20048;-78
2021/12/07 02:24:41;;;;;;;31.05;18.25;;;;;;;0.78;66.44;97238.53;9802672;30;20045;-78
2021/12/07 02:30:06;;;;;;;32.22;18.92;;;;;;;0.77;67.04;97239.81;9814417;30;20048;-78
2021/12/07 02:35:28;;;;;;;32.67;19.80;;;;;;;0.77;67.09;97245.31;9814557;30;20052;-78
2021/12/07 02:40:53;;;;;;;32.65;20.17;;;;;;;0.67;67.70;97251.81;9803067;30;20048;-78
2021/12/07 02:46:14;;;;;;;33.50;19.20;;;;;;;0.67;67.32;97260.06;9801787;30;20075;-78
2021/12/07 02:51:36;;;;;;;32.97;19.67;;;;;;;0.73;67.44;97246.91;9813569;30;20060;-79
2021/12/07 02:56:59;;;;;;;34.08;20.08;;;;;;;0.83;67.57;97231.41;9813910;30;20056;-78
2021/12/07 03:02:21;;;;;;;32.38;19.33;;;;;;;0.72;66.91;97240.69;9800948;30;20048;-78
2021/12/07 03:30:26;;;;;;;35.70;20.45;;;;;;;0.40;67.74;97245.78;9814660;30;20428;-78
2021/12/07 03:35:48;;;;;;;34.80;20.98;;;;;;;0.41;68.52;97236.28;9800311;30;20058;-78
2021/12/07 03:41:10;;;;;;;35.78;21.15;;;;;;;0.54;68.28;97234.16;9799834;30;20052;-78
2021/12/07 03:46:31;;;;;;;33.40;20.70;;;;;;;0.50;68.47;97227.56;9811668;30;20072;-78
2021/12/07 03:51:52;;;;;;;31.80;19.95;;;;;;;0.60;68.41;97234.03;9784572;30;20067;-78
2021/12/07 03:57:14;;;;;;;33.75;20.77;;;;;;;0.78;68.15;97235.06;9811707;30;20492;-78
2021/12/07 04:02:39;;;;;;;32.92;20.38;;;;;;;0.87;67.85;97231.81;9799377;30;20201;-78
2021/12/07 04:08:05;;;;;;;31.35;19.42;;;;;;;0.77;67.89;97233.56;9801265;30;20419;-78
2021/12/07 04:13:27;;;;;;;29.92;18.88;;;;;;;0.63;68.01;97237.69;9823070;30;20470;-78
2021/12/07 04:18:50;;;;;;;37.08;21.02;;;;;;;0.53;68.64;97251.19;9810964;30;20052;-78
2021/12/07 04:24:11;;;;;;;35.78;20.98;;;;;;;0.54;68.59;97244.41;9798361;30;20080;-78
2021/12/07 04:29:32;;;;;;;33.97;21.63;;;;;;;0.61;68.52;97259.47;9810313;30;20048;-78
2021/12/07 04:34:53;;;;;;;34.28;20.67;;;;;;;0.62;68.72;97250.69;9788727;30;20135;-78
2021/12/07 04:40:17;;;;;;;30.52;18.90;;;;;;;0.71;68.34;97247.47;9793354;30;20052;-78
2021/12/07 05:02:24;;;;;;;35.22;21.25;;;;;;;0.83;68.27;97242.38;9789891;30;20059;-78
2021/12/07 05:07:51;;;;;;;37.33;21.65;;;;;;;0.71;68.97;97238.47;9794211;30;20408;-78
2021/12/07 05:24:25;;;;;;;30.90;19.45;;;;;;;0.30;68.91;97237.28;9762562;30;20056;-78
2021/12/07 05:41:16;;;;;;;35.90;21.90;;;;;;;0.14;70.38;97252.91;9795601;30;20044;-79
2021/12/07 05:46:37;;;;;;;35.00;21.45;;;;;;;0.08;70.16;97238.56;9777206;30;20415;-77
2021/12/07 05:51:58;;;;;;;31.52;20.40;;;;;;;0.05;70.00;97255.38;9778331;30;20112;-77
2021/12/07 05:57:20;;;;;;;37.38;20.90;;;;;;;0.20;70.04;97256.25;9790638;30;20458;-78
2021/12/07 06:02:40;;;;;;;33.35;20.92;;;;;;;0.42;70.26;97243.22;9805130;30;20048;-77
2021/12/07 06:08:04;;;;;;;34.70;21.20;;;;;;;0.47;69.92;97248.56;9786018;30;20068;-78
2021/12/07 06:13:27;;;;;;;35.20;21.55;;;;;;;0.54;69.74;97238.91;9803401;30;20052;-77
2021/12/07 06:18:49;;;;;;;34.73;21.53;;;;;;;0.64;70.09;97242.66;9783090;30;20081;-77
2021/12/07 06:24:11;;;;;;;33.97;19.30;;;;;;;0.64;69.87;97242.66;9784018;30;20072;-78
2021/12/07 06:29:33;;;;;;;31.15;19.52;;;;;;;0.63;69.88;97229.44;9791569;30;20408;-78
2021/12/07 06:34:55;;;;;;;33.55;21.77;;;;;;;0.65;69.62;97240.63;9791977;30;20052;-78
2021/12/07 06:40:16;;;;;;;32.15;19.85;;;;;;;0.66;69.50;97244.84;9798934;30;20048;-77
2021/12/07 06:45:37;;;;;;;35.38;21.67;;;;;;;0.62;69.68;97238.97;9817292;30;20060;-77
2021/12/07 06:51:01;;;;;;;37.58;21.30;;;;;;;0.62;70.19;97239.72;9812855;30;20455;-77
2021/12/07 06:56:24;;;;;;;36.83;21.83;;;;;;;0.75;70.21;97236.84;9800044;30;20414;-78
2021/12/07 07:01:47;;;;;;;31.80;20.35;;;;;;;0.83;69.75;97232.13;9801082;30;20052;-77
2021/12/07 07:07:09;;;;;;;33.20;21.23;;;;;;;0.88;69.69;97227.78;9801566;30;20419;-77
2021/12/07 07:12:31;;;;;;;34.70;21.33;;;;;;;1.83;68.53;97233.22;9792325;30;20533;-78
2021/12/07 07:17:53;;;;;;;32.75;21.90;;;;;;;3.02;67.37;97239.03;9776869;30;20053;-77
2021/12/07 07:23:15;;;;;;;33.13;21.35;;;;;;;3.75;65.44;97248.09;9776162;30;20053;-77
2021/12/07 07:28:37;;;;;;;31.67;21.73;;;;;;;3.84;66.60;97249.50;9776370;30;20048;-77
2021/12/07 07:34:01;;;;;;;34.83;21.58;;;;;;;4.66;65.54;97249.47;9776629;30;20492;-78
2021/12/07 07:39:39;;;;;;;31.75;21.95;;;;;;;8.30;57.82;97262.13;9779604;30;20047;-78
2021/12/07 07:45:06;;;;;;;33.72;22.40;;;;;;;7.36;51.77;97243.75;9777294;30;20400;-78
2021/12/07 07:50:31;;;;;;;32.90;22.13;;;;;;;5.25;57.59;97256.25;9775540;30;20136;-78
2021/12/07 07:55:54;;;;;;;34.03;22.63;;;;;;;3.99;59.60;97269.50;9775760;30;20135;-78
2021/12/07 08:01:16;;;;;;;33.72;21.38;;;;;;;3.12;61.86;97259.94;9775327;30;20048;-78
2021/12/07 08:07:07;;;;;;;35.15;22.73;;;;;;;2.52;63.58;97269.06;9773806;30;20455;-78
2021/12/07 08:12:28;;;;;;;37.40;23.25;;;;;;;2.20;64.28;97269.59;9763321;30;20049;-77
2021/12/07 08:17:49;;;;;;;35.33;23.27;;;;;;;1.86;65.66;97269.94;9763396;30;20063;-77
2021/12/07 08:23:11;;;;;;;36.33;24.00;;;;;;;2.03;65.73;97266.63;9774570;30;20044;-77
2021/12/07 08:28:34;;;;;;;37.50;23.88;;;;;;;2.22;65.43;97267.03;9763483;30;20090;-77
2021/12/07 08:33:58;;;;;;;34.97;21.83;;;;;;;2.35;65.30;97279.91;9762959;30;20132;-77
2021/12/07 08:39:28;;;;;;;36.20;23.27;;;;;;;2.12;64.90;97274.34;9765567;30;20118;-77
2021/12/07 08:44:51;;;;;;;34.78;22.85;;;;;;;1.69;66.23;97270.44;9774125;30;20083;-76
2021/12/07 08:50:20;;;;;;;34.60;22.85;;;;;;;1.61;67.00;97266.91;9774981;30;20113;-76
2021/12/07 09:01:34;;;;;;;38.90;23.08;;;;;;;1.55;66.99;97275.34;9780602;30;20055;-77
2021/12/07 09:06:55;;;;;;;36.95;23.05;;;;;;;1.35;67.77;97278.91;9761614;30;20056;-77
2021/12/07 09:12:16;;;;;;;36.53;21.98;;;;;;;1.22;67.98;97287.31;9761247;30;20073;-77
2021/12/07 09:17:38;;;;;;;35.28;21.40;;;;;;;1.19;68.52;97278.13;9773286;30;20131;-77
2021/12/07 09:22:58;;;;;;;34.40;22.30;;;;;;;1.22;68.75;97273.56;9760901;30;20049;-76
2021/12/07 09:28:19;;;;;;;34.03;20.92;;;;;;;1.27;68.32;97272.69;9785041;30;20112;-76
2021/12/07 09:33:41;;;;;;;29.65;20.38;;;;;;;1.38;67.98;97277.84;9760558;30;20056;-77
2021/12/07 09:39:04;;;;;;;33.50;20.40;;;;;;;1.37;68.65;97271.63;9773217;30;20056;-76
2021/12/07 09:44:25;;;;;;;32.95;21.10;;;;;;;1.41;68.55;97285.75;9773039;30;20060;-77
2021/12/07 09:49:46;;;;;;;33.70;21.60;;;;;;;1.44;68.52;97283.91;9765616;30;20088;-77
2021/12/07 09:55:07;;;;;;;33.15;21.05;;;;;;;1.64;67.92;97274.84;9754432;30;20057;-79
2021/12/07 10:00:29;;;;;;;33.72;21.17;;;;;;;1.69;67.66;97278.69;9767944;30;20051;-77
2021/12/07 10:05:49;;;;;;;32.72;20.90;;;;;;;1.76;67.84;97283.47;9766958;30;20137;-77
2021/12/07 10:11:11;;;;;;;31.02;21.50;;;;;;;1.74;67.38;97275.03;9778653;30;20053;-77
2021/12/07 10:16:32;;;;;;;34.75;21.73;;;;;;;1.82;67.74;97270.28;9778614;30;20045;-77
2021/12/07 10:22:04;;;;;;;34.35;22.10;;;;;;;1.79;67.89;97273.41;9779847;30;20059;-77
2021/12/07 10:27:36;;;;;;;36.25;22.25;;;;;;;1.87;67.57;97263.88;9809252;30;20049;-85
2021/12/07 10:33:05;;;;;;;35.50;22.15;;;;;;;1.97;67.39;97259.31;9814614;30;20043;-85
2021/12/07 10:38:26;;;;;;;33.85;22.05;;;;;;;2.06;67.40;97252.53;9802060;30;20485;-79
2021/12/07 10:44:04;;;;;;;33.78;22.65;;;;;;;2.15;67.13;97262.25;9815994;30;20041;-84
2021/12/07 10:49:29;;;;;;;34.58;22.33;;;;;;;2.31;67.19;97269.22;9793966;30;20139;-83
2021/12/07 10:54:56;;;;;;;30.60;20.38;;;;;;;2.37;66.21;97261.53;10007316;24;20101;-79
2021/12/07 11:00:24;;;;;;;30.70;20.48;;;;;;;2.59;66.60;97258.03;9994450;24;20064;-77
2021/12/07 11:06:31;;;;;;;34.65;22.00;;;;;;;2.84;66.41;97265.72;10320313;24;20019;31
2021/12/07 11:12:10;;;;;;;31.52;20.60;;;;;;;2.75;65.60;97255.25;10079434;24;20086;-82
2021/12/07 11:17:33;;;;;;;31.27;20.35;;;;;;;2.80;66.02;97246.06;9818415;30;20052;-79
2021/12/07 11:23:18;;;;;;;32.72;20.77;;;;;;;3.05;65.28;97244.16;9800871;30;20048;-78
2021/12/07 11:34:36;;;;;;;30.80;19.95;;;;;;;2.75;65.76;97247.72;9836995;30;20131;-78
2021/12/07 11:40:06;;;;;;;30.15;19.02;;;;;;;2.87;66.15;97242.53;9800822;30;20079;-78
2021/12/07 11:45:29;;;;;;;32.58;21.30;;;;;;;2.84;65.60;97257.44;9824798;30;20503;-79
2021/12/07 11:50:51;;;;;;;36.25;21.80;;;;;;;2.82;65.20;97255.25;9800393;30;20049;-78
2021/12/07 11:56:13;;;;;;;33.20;21.95;;;;;;;2.88;65.97;97257.78;9814047;30;20051;-78
2021/12/07 12:01:34;;;;;;;32.15;20.80;;;;;;;2.74;65.21;97248.28;9799264;30;20051;-78
2021/12/07 12:06:57;;;;;;;35.35;21.77;;;;;;;2.73;66.06;97235.78;9770012;30;20045;-78
2021/12/07 12:12:25;;;;;;;33.15;21.35;;;;;;;2.80;65.58;97240.56;9763214;30;20432;-80
2021/12/07 12:18:24;;;;;;;30.85;21.05;;;;;;;2.71;65.48;97243.88;9806576;30;20044;-82
2021/12/07 12:23:48;;;;;;;32.25;20.38;;;;;;;2.72;66.19;97248.09;10086142;24;20068;-83
2021/12/07 12:35:42;;;;;;;33.45;21.73;;;;;;;2.47;66.87;97226.63;10627442;24;20048;-82
2021/12/07 12:41:14;;;;;;;33.72;21.65;;;;;;;2.45;67.13;97239.50;9858030;30;20042;-81
2021/12/07 12:46:37;;;;;;;34.55;21.05;;;;;;;2.51;67.12;97248.28;9852949;30;20036;-82
2021/12/07 12:51:59;;;;;;;31.55;20.90;;;;;;;2.45;67.57;97245.00;9836660;30;20059;-80
2021/12/07 12:57:22;;;;;;;36.05;20.92;;;;;;;2.48;68.17;97247.38;9937854;24;20068;-83
2021/12/07 13:02:49;;;;;;;31.27;20.08;;;;;;;2.46;68.18;97241.69;9850946;30;20052;-81
2021/12/07 13:08:19;;;;;;;30.75;19.77;;;;;;;2.40;68.29;97232.13;9833738;30;20044;-81
2021/12/07 13:13:42;;;;;;;35.47;21.13;;;;;;;2.26;68.40;97237.13;9837848;30;20032;-83
2021/12/07 13:19:07;;;;;;;36.53;21.83;;;;;;;2.16;69.78;97247.22;9835841;30;20056;-83
2021/12/07 13:24:37;;;;;;;29.30;20.13;;;;;;;2.10;69.28;97249.41;9834879;30;20048;-81
2021/12/07 13:29:59;;;;;;;36.30;22.05;;;;;;;2.08;70.07;97257.47;9838542;30;20052;-79
2021/12/07 13:35:29;;;;;;;32.25;20.42;;;;;;;2.05;69.62;97270.34;9848477;30;20075;-82
2021/12/07 13:41:24;;;;;;;35.15;22.17;;;;;;;2.03;70.49;97272.91;9851616;30;20082;-82
2021/12/07 13:46:45;;;;;;;31.98;20.10;;;;;;;2.05;70.33;97266.84;9858035;30;20056;-82
2021/12/07 13:52:21;;;;;;;32.53;20.63;;;;;;;2.05;70.12;97269.59;9870483;30;20052;-82
2021/12/07 13:57:46;;;;;;;32.83;21.30;;;;;;;2.05;70.70;97281.34;9846567;30;20072;-82
2021/12/07 14:03:09;;;;;;;32.13;20.52;;;;;;;1.98;70.49;97277.28;9859126;30;20064;-81
2021/12/07 14:08:30;;;;;;;31.52;19.98;;;;;;;1.99;70.79;97278.03;9856925;30;20126;-82
2021/12/07 14:13:52;;;;;;;33.10;20.58;;;;;;;2.02;70.01;97271.41;9856270;30;20064;-82
2021/12/07 14:19:15;;;;;;;32.42;20.90;;;;;;;2.10;71.16;97272.16;9857607;30;20055;-82
2021/12/07 14:24:42;;;;;;;32.42;20.45;;;;;;;2.13;70.40;97270.34;9859601;30;20090;-82
2021/12/07 14:30:07;;;;;;;32.92;20.48;;;;;;;2.15;70.16;97281.53;9824233;30;20139;-81
2021/12/07 14:35:30;;;;;;;36.92;21.60;;;;;;;2.15;70.16;97281.53;9815573;30;20059;-82
2021/12/07 14:40:53;;;;;;;31.67;19.85;;;;;;;2.11;69.94;97279.13;9815068;30;20488;-82
2021/12/07 14:46:22;;;;;;;32.85;20.83;;;;;;;2.06;70.19;97287.59;9826210;30;20044;-82
2021/12/07 14:51:43;;;;;;;33.83;21.92;;;;;;;2.01;70.64;97289.22;9816066;30;20055;-82
2021/12/07 14:57:08;;;;;;;;;;;;;;;1.92;70.73;97281.47;9809402;30;20073;-80
2021/12/07 15:02:32;;;;;;;29.48;19.40;;;;;;;1.93;70.82;97274.69;9815563;30;20021;-79
2021/12/07 15:08:00;;;;;;;31.17;19.98;;;;;;;1.98;71.00;97269.03;9783067;30;20144;-80
2021/12/07 15:13:24;;;;;;;34.92;21.70;;;;;;;2.00;71.19;97268.47;9786730;30;20072;-80
2021/12/07 15:18:47;;;;;;;32.63;19.95;;;;;;;2.01;71.11;97278.94;9810577;30;20096;-81
2021/12/07 15:24:19;;;;;;;33.05;20.17;;;;;;;2.03;70.36;97277.66;9820980;30;20063;-78
2021/12/07 15:29:44;;;;;;;33.95;21.55;;;;;;;2.07;70.82;97278.03;9838392;30;20108;-82
2021/12/07 15:35:06;;;;;;;35.38;21.33;;;;;;;2.14;71.13;97274.56;9842474;30;20076;-78
2021/12/07 15:40:28;;;;;;;33.53;21.42;;;;;;;2.20;71.23;97269.59;9835258;30;20114;-76
2021/12/07 15:45:50;;;;;;;34.65;22.05;;;;;;;2.22;71.11;97267.78;9811451;30;20054;-75
2021/12/07 15:51:12;;;;;;;37.05;22.63;;;;;;;2.25;70.93;97263.19;9849524;30;20048;-80
2021/12/07 15:56:33;;;;;;;37.85;21.95;;;;;;;2.31;70.68;97258.22;9843712;30;20060;-82
2021/12/07 16:02:05;;;;;;;35.47;21.65;;;;;;;2.28;70.72;97262.06;9818065;30;20061;-84
2021/12/07 16:07:28;;;;;;;32.75;21.15;;;;;;;2.28;71.27;97265.56;9857118;30;20056;-83
2021/12/07 16:13:08;;;;;;;35.20;21.40;;;;;;;2.29;71.42;97269.06;9849461;30;20036;-76
2021/12/07 16:18:39;;;;;;;36.42;22.25;;;;;;;2.31;71.17;97260.97;9842950;30;20086;-79
2021/12/07 16:24:12;;;;;;;33.00;20.55;;;;;;;2.32;70.54;97269.97;9827380;30;20381;-83
2021/12/07 16:30:14;;;;;;;35.63;21.48;;;;;;;2.29;70.60;97264.28;9829973;30;20099;-77
2021/12/07 16:35:37;;;;;;;33.97;21.05;;;;;;;2.34;71.28;97272.94;9804391;30;20496;-79
2021/12/07 16:41:14;;;;;;;32.53;21.17;;;;;;;2.33;71.30;97279.72;9817612;30;20040;-79
2021/12/07 16:46:39;;;;;;;33.33;20.77;;;;;;;2.37;71.23;97285.59;9818342;30;20050;-82
2021/12/07 16:52:07;;;;;;;31.88;21.15;;;;;;;2.40;71.50;97290.00;9811316;30;20063;-78
2021/12/07 16:57:39;;;;;;;35.60;21.73;;;;;;;2.39;71.00;97291.28;9811240;30;20060;-77
2021/12/07 17:03:10;;;;;;;34.10;21.40;;;;;;;2.42;71.20;97288.19;9805958;30;20075;-83
2021/12/07 17:08:34;;;;;;;33.10;21.88;;;;;;;2.46;71.01;97290.56;9819086;30;20060;-80
2021/12/07 17:13:58;;;;;;;34.88;21.63;;;;;;;2.47;71.30;97283.75;9825956;30;20055;-80
2021/12/07 17:19:24;;;;;;;33.70;21.35;;;;;;;2.43;70.63;97291.66;9814624;30;20499;-79
2021/12/07 17:24:52;;;;;;;36.17;21.60;;;;;;;2.44;71.26;97288.34;9802119;30;20070;-81
2021/12/07 17:30:23;;;;;;;38.45;24.48;;;;;;;2.39;70.70;97272.72;9811939;30;20052;-81
2021/12/07 17:35:46;;;;;;;37.28;22.40;;;;;;;2.38;70.72;97268.50;9811103;30;20119;-79
2021/12/07 17:41:09;;;;;;;39.10;22.88;;;;;;;2.35;71.24;97280.63;9809380;30;20094;-79
2021/12/07 17:46:33;;;;;;;;;;;;;;;2.41;71.11;97272.91;9809985;30;20052;-78
2021/12/07 17:52:03;;;;;;;35.63;21.27;;;;;;;2.48;70.98;97255.66;9821280;30;19926;-78
2021/12/07 17:57:25;;;;;;;35.72;22.80;;;;;;;2.45;71.22;97251.25;9809293;30;20508;-79
2021/12/07 18:02:49;;;;;;;33.13;20.25;;;;;;;2.39;71.33;97252.72;9781291;30;20515;-79
2021/12/07 18:08:11;;;;;;;38.30;22.48;;;;;;;2.44;71.84;97260.81;9773188;30;20102;-78
2021/12/07 18:13:43;;;;;;;33.20;21.48;;;;;;;2.45;71.34;97256.75;9768400;30;20570;-79
2021/12/07 18:19:04;;;;;;;36.90;22.52;;;;;;;2.47;71.03;97245.19;9780565;30;20063;-81
2021/12/07 18:24:27;;;;;;;38.35;23.25;;;;;;;2.46;71.22;97249.22;9791639;30;20143;-80
2021/12/07 18:30:13;;;;;;;37.92;22.65;;;;;;;2.38;71.24;97229.22;9797133;30;20049;-80
2021/12/07 18:35:39;;;;;;;35.53;22.15;;;;;;;2.32;71.23;97234.91;9791462;30;20114;-80
2021/12/07 18:41:06;;;;;;;38.60;21.90;;;;;;;2.28;71.34;97237.28;9792823;30;20072;-82
2021/12/07 18:46:35;;;;;;;;;;;;;;;2.25;71.68;97239.13;9805892;30;20049;-83
2021/12/07 18:51:57;;;;;;;34.80;20.15;;;;;;;2.30;71.83;97215.44;9782437;30;19956;-80
2021/12/07 18:57:19;;;;;;;33.28;22.25;;;;;;;2.31;71.46;97227.91;9791011;30;20523;-80
2021/12/07 19:02:42;;;;;;;36.45;22.30;;;;;;;2.30;71.77;97220.94;9790440;30;20500;-80
2021/12/07 19:09:08;;;;;;;34.38;21.33;;;;;;;2.20;72.02;97214.53;9793059;30;20420;-78
2021/12/07 19:14:33;;;;;;;36.42;22.65;;;;;;;2.11;72.02;97209.56;9801943;30;20547;-79
2021/12/07 19:21:06;;;;;;;36.08;22.75;;;;;;;1.93;72.26;97223.16;9791627;30;20366;-80
2021/12/07 20:00:36;;;;;;;36.63;22.83;;;;;;;2.30;71.91;97207.16;9796257;30;20065;-78
2021/12/07 20:06:34;;;;;;;36.33;21.90;;;;;;;2.27;72.98;97198.00;9717698;30;20061;-79
2021/12/07 20:12:26;;;;;;;32.53;21.45;;;;;;;2.32;72.56;97203.84;9699936;30;20085;-79
2021/12/07 20:19:41;;;;;;;36.08;20.70;;;;;;;2.33;72.93;97189.56;9705205;30;20062;-79
2021/12/07 20:26:37;;;;;;;33.75;21.27;;;;;;;2.25;72.68;97188.84;9654130;30;20057;-79
2021/12/07 20:33:34;;;;;;;32.38;20.33;;;;;;;2.25;73.16;97183.31;9592143;30;20055;-78
2021/12/07 20:39:30;;;;;;;33.13;20.95;;;;;;;2.21;73.54;97180.19;9645011;30;20062;-78
2021/12/07 20:45:06;;;;;;;37.20;22.17;;;;;;;2.17;73.22;97171.56;9642145;30;20070;-80
2021/12/07 20:50:33;;;;;;;31.75;19.60;;;;;;;2.17;72.95;97175.06;9695596;30;20070;-80
2021/12/07 20:56:16;;;;;;;32.88;21.05;;;;;;;2.23;73.50;97174.88;9724755;30;20066;-79
2021/12/07 21:02:12;;;;;;;30.87;20.53;;;;;;;2.31;73.22;97175.59;9772522;30;20519;-79
2021/12/07 21:07:54;;;;;;;30.05;19.80;;;;;;;2.38;72.99;97150.06;9788917;30;20072;-80
2021/12/07 21:13:22;;;;;;;35.42;21.75;;;;;;;2.29;73.23;97145.13;9797228;30;20049;-78
2021/12/07 21:18:43;;;;;;;31.40;20.35;;;;;;;2.18;73.37;97135.22;9792101;30;20060;-78
2021/12/07 21:24:14;;;;;;;31.13;20.73;;;;;;;2.22;73.21;97135.59;9780914;30;20049;-78
2021/12/07 21:29:47;;;;;;;31.40;20.55;;;;;;;2.27;73.15;97145.66;9792815;30;20048;-78
2021/12/07 21:35:14;;;;;;;32.30;20.95;;;;;;;2.21;73.02;97131.34;9791764;30;20048;-78
2021/12/07 21:40:38;;;;;;;32.10;21.08;;;;;;;2.25;73.33;97136.50;9779404;30;20053;-78
2021/12/07 21:46:11;;;;;;;32.47;20.98;;;;;;;2.26;73.23;97135.22;9795355;30;20048;-78
2021/12/07 21:51:34;;;;;;;33.90;21.05;;;;;;;2.30;73.61;97135.56;9779181;30;20052;-78
2021/12/07 21:56:55;;;;;;;31.83;20.48;;;;;;;2.25;73.61;97140.00;9777290;30;20049;-78
2021/12/07 22:02:22;;;;;;;32.65;21.40;;;;;;;2.15;73.67;97124.59;9778901;30;20064;-78
2021/12/07 22:07:51;;;;;;;32.38;22.10;;;;;;;2.19;73.46;97119.44;9780818;30;20136;-78
2021/12/07 22:13:19;;;;;;;35.72;23.00;;;;;;;2.12;73.68;97118.16;9778850;30;20404;-78
2021/12/07 22:18:52;;;;;;;33.28;20.90;;;;;;;2.04;73.69;97102.94;9782169;30;20072;-78
2021/12/07 22:24:14;;;;;;;34.80;21.50;;;;;;;2.01;74.23;97102.75;9790847;30;20048;-78
2021/12/07 22:29:38;;;;;;;36.17;21.97;;;;;;;1.99;74.56;97097.06;9778703;30;20128;-78
2021/12/07 22:35:02;;;;;;;31.80;21.00;;;;;;;2.03;74.73;97090.44;9789959;30;20055;-78
2021/12/07 22:40:36;;;;;;;30.75;20.70;;;;;;;1.98;74.42;97078.34;9780286;30;20136;-78
2021/12/07 22:46:01;;;;;;;29.67;19.65;;;;;;;1.95;74.40;97068.47;9778765;30;20051;-78
2021/12/07 22:51:23;;;;;;;31.85;20.48;;;;;;;1.83;75.19;97054.31;9777621;30;20055;-78
2021/12/07 22:56:46;;;;;;;33.50;20.13;;;;;;;1.65;75.13;97047.22;9777386;30;20060;-78
2021/12/07 23:02:08;;;;;;;31.08;19.85;;;;;;;1.43;75.80;97049.41;9778059;30;20068;-78
2021/12/07 23:07:31;;;;;;;32.42;18.75;;;;;;;1.26;75.49;97046.47;9777950;30;20186;-78
2021/12/07 23:12:55;;;;;;;34.25;20.23;;;;;;;1.15;75.68;97036.53;9777285;30;20063;-78
2021/12/07 23:18:22;;;;;;;29.93;19.23;;;;;;;1.05;75.80;97018.38;9777103;30;20403;-78
2021/12/07 23:23:48;;;;;;;30.17;19.85;;;;;;;0.97;76.46;97010.16;9776846;30;20048;-78
2021/12/07 23:29:09;;;;;;;30.77;19.20;;;;;;;0.95;77.00;97006.47;9776322;30;20072;-78
2021/12/07 23:34:31;;;;;;;27.85;18.90;;;;;;;0.98;76.27;96994.41;9764009;30;20071;-78
2021/12/07 23:39:53;;;;;;;30.83;20.15;;;;;;;0.92;76.86;96988.34;9776055;30;20082;-78
2021/12/07 23:45:14;;;;;;;29.48;19.42;;;;;;;0.88;77.00;96985.97;9761850;30;20064;-78
2021/12/07 23:50:35;;;;;;;30.83;18.30;;;;;;;0.90;76.67;96988.16;9763565;30;20044;-78
2021/12/07 23:55:57;;;;;;;27.50;16.58;;;;;;;0.99;76.38;96990.38;9775339;30;20044;-78
